sensor_id;sensor_type;location;lat;lon;timestamp;temperature;humidity
68867;SHT30;56451;44.804;20.476;2023-08-30T00:01:10;24.96;56.37
68867;SHT30;56451;44.804;20.476;2023-08-30T00:03:38;25.02;56.27
68867;SHT30;56451;44.804;20.476;2023-08-30T00:06:07;24.95;56.47
68867;SHT30;56451;44.804;20.476;2023-08-30T00:08:36;24.95;56.44
68867;SHT30;56451;44.804;20.476;2023-08-30T00:11:04;24.89;56.66
68867;SHT30;56451;44.804;20.476;2023-08-30T00:13:32;24.78;56.87
68867;SHT30;56451;44.804;20.476;2023-08-30T00:16:00;24.69;56.78
68867;SHT30;56451;44.804;20.476;2023-08-30T00:18:29;24.61;57.19
68867;SHT30;56451;44.804;20.476;2023-08-30T00:20:58;24.57;57.21
68867;SHT30;56451;44.804;20.476;2023-08-30T00:23:26;24.51;57.73
68867;SHT30;56451;44.804;20.476;2023-08-30T00:25:55;24.48;57.68
68867;SHT30;56451;44.804;20.476;2023-08-30T00:28:23;24.48;57.66
68867;SHT30;56451;44.804;20.476;2023-08-30T00:30:55;24.49;57.64
68867;SHT30;56451;44.804;20.476;2023-08-30T00:33:21;24.48;57.64
68867;SHT30;56451;44.804;20.476;2023-08-30T00:35:55;24.49;57.83
68867;SHT30;56451;44.804;20.476;2023-08-30T00:38:22;24.52;57.79
68867;SHT30;56451;44.804;20.476;2023-08-30T00:40:48;24.58;57.53
68867;SHT30;56451;44.804;20.476;2023-08-30T00:43:15;24.62;57.36
68867;SHT30;56451;44.804;20.476;2023-08-30T00:45:41;24.64;57.22
68867;SHT30;56451;44.804;20.476;2023-08-30T00:48:07;24.65;57.15
68867;SHT30;56451;44.804;20.476;2023-08-30T00:50:34;24.61;57.28
68867;SHT30;56451;44.804;20.476;2023-08-30T00:53:03;24.62;57.21
68867;SHT30;56451;44.804;20.476;2023-08-30T00:55:35;24.64;56.86
68867;SHT30;56451;44.804;20.476;2023-08-30T00:58:03;24.65;56.87
68867;SHT30;56451;44.804;20.476;2023-08-30T01:00:30;24.61;57.10
68867;SHT30;56451;44.804;20.476;2023-08-30T01:02:57;24.57;57.08
68867;SHT30;56451;44.804;20.476;2023-08-30T01:05:23;24.54;57.26
68867;SHT30;56451;44.804;20.476;2023-08-30T01:07:51;24.49;57.19
68867;SHT30;56451;44.804;20.476;2023-08-30T01:10:18;24.47;57.46
68867;SHT30;56451;44.804;20.476;2023-08-30T01:12:49;24.44;57.59
68867;SHT30;56451;44.804;20.476;2023-08-30T01:15:20;24.38;57.46
68867;SHT30;56451;44.804;20.476;2023-08-30T01:17:53;24.37;57.66
68867;SHT30;56451;44.804;20.476;2023-08-30T01:20:21;24.35;57.67
68867;SHT30;56451;44.804;20.476;2023-08-30T01:23:05;24.32;57.83
68867;SHT30;56451;44.804;20.476;2023-08-30T01:25:55;24.35;57.85
68867;SHT30;56451;44.804;20.476;2023-08-30T01:28:24;24.29;57.96
68867;SHT30;56451;44.804;20.476;2023-08-30T01:30:53;24.28;58.15
68867;SHT30;56451;44.804;20.476;2023-08-30T01:33:24;24.25;58.46
68867;SHT30;56451;44.804;20.476;2023-08-30T01:35:59;24.28;58.47
68867;SHT30;56451;44.804;20.476;2023-08-30T01:38:27;24.22;58.71
68867;SHT30;56451;44.804;20.476;2023-08-30T01:40:56;24.24;58.85
68867;SHT30;56451;44.804;20.476;2023-08-30T01:43:25;24.25;58.98
68867;SHT30;56451;44.804;20.476;2023-08-30T01:45:54;24.24;59.18
68867;SHT30;56451;44.804;20.476;2023-08-30T01:48:23;24.22;59.43
68867;SHT30;56451;44.804;20.476;2023-08-30T01:50:50;24.21;59.55
68867;SHT30;56451;44.804;20.476;2023-08-30T01:53:17;24.21;59.65
68867;SHT30;56451;44.804;20.476;2023-08-30T01:55:43;24.24;59.63
68867;SHT30;56451;44.804;20.476;2023-08-30T01:58:10;24.27;59.63
68867;SHT30;56451;44.804;20.476;2023-08-30T02:00:37;24.27;59.75
68867;SHT30;56451;44.804;20.476;2023-08-30T02:03:12;24.27;59.87
68867;SHT30;56451;44.804;20.476;2023-08-30T02:08:26;24.29;59.62
68867;SHT30;56451;44.804;20.476;2023-08-30T02:11:01;24.32;59.70
68867;SHT30;56451;44.804;20.476;2023-08-30T02:13:30;24.32;59.69
68867;SHT30;56451;44.804;20.476;2023-08-30T02:15:59;24.32;59.73
68867;SHT30;56451;44.804;20.476;2023-08-30T02:18:26;24.34;59.80
68867;SHT30;56451;44.804;20.476;2023-08-30T02:20:56;24.37;59.58
68867;SHT30;56451;44.804;20.476;2023-08-30T02:23:24;24.34;59.70
68867;SHT30;56451;44.804;20.476;2023-08-30T02:25:54;24.41;59.51
68867;SHT30;56451;44.804;20.476;2023-08-30T02:28:22;24.42;59.60
68867;SHT30;56451;44.804;20.476;2023-08-30T02:33:44;24.47;59.45
68867;SHT30;56451;44.804;20.476;2023-08-30T02:36:11;24.45;59.26
68867;SHT30;56451;44.804;20.476;2023-08-30T02:38:37;24.49;59.44
68867;SHT30;56451;44.804;20.476;2023-08-30T02:41:02;24.48;59.14
68867;SHT30;56451;44.804;20.476;2023-08-30T02:43:28;24.49;59.18
68867;SHT30;56451;44.804;20.476;2023-08-30T02:45:54;24.54;59.40
68867;SHT30;56451;44.804;20.476;2023-08-30T02:48:20;24.49;59.51
68867;SHT30;56451;44.804;20.476;2023-08-30T02:50:46;24.51;59.48
68867;SHT30;56451;44.804;20.476;2023-08-30T02:53:12;24.52;59.32
68867;SHT30;56451;44.804;20.476;2023-08-30T02:55:38;24.54;59.15
68867;SHT30;56451;44.804;20.476;2023-08-30T02:58:04;24.55;59.13
68867;SHT30;56451;44.804;20.476;2023-08-30T03:00:30;24.59;58.81
68867;SHT30;56451;44.804;20.476;2023-08-30T03:02:57;24.61;58.70
68867;SHT30;56451;44.804;20.476;2023-08-30T03:05:23;24.64;58.58
68867;SHT30;56451;44.804;20.476;2023-08-30T03:07:49;24.62;58.55
68867;SHT30;56451;44.804;20.476;2023-08-30T03:10:17;24.64;58.44
68867;SHT30;56451;44.804;20.476;2023-08-30T03:12:43;24.61;58.40
68867;SHT30;56451;44.804;20.476;2023-08-30T03:15:09;24.62;58.37
68867;SHT30;56451;44.804;20.476;2023-08-30T03:17:36;24.55;58.30
68867;SHT30;56451;44.804;20.476;2023-08-30T03:20:02;24.55;58.32
68867;SHT30;56451;44.804;20.476;2023-08-30T03:22:30;24.55;58.42
68867;SHT30;56451;44.804;20.476;2023-08-30T03:24:56;24.54;58.30
68867;SHT30;56451;44.804;20.476;2023-08-30T03:27:22;24.52;58.25
68867;SHT30;56451;44.804;20.476;2023-08-30T03:29:48;24.52;58.36
68867;SHT30;56451;44.804;20.476;2023-08-30T03:32:16;24.48;58.52
68867;SHT30;56451;44.804;20.476;2023-08-30T03:34:46;24.45;58.52
68867;SHT30;56451;44.804;20.476;2023-08-30T03:37:14;24.44;58.54
68867;SHT30;56451;44.804;20.476;2023-08-30T03:39:40;24.42;58.66
68867;SHT30;56451;44.804;20.476;2023-08-30T03:42:06;24.41;58.77
68867;SHT30;56451;44.804;20.476;2023-08-30T03:44:32;24.39;58.79
68867;SHT30;56451;44.804;20.476;2023-08-30T03:46:58;24.35;59.08
68867;SHT30;56451;44.804;20.476;2023-08-30T03:49:24;24.32;59.15
68867;SHT30;56451;44.804;20.476;2023-08-30T03:51:50;24.37;58.85
68867;SHT30;56451;44.804;20.476;2023-08-30T03:54:16;24.35;58.93
68867;SHT30;56451;44.804;20.476;2023-08-30T03:56:43;24.35;58.83
68867;SHT30;56451;44.804;20.476;2023-08-30T03:59:09;24.32;58.93
68867;SHT30;56451;44.804;20.476;2023-08-30T04:01:35;24.29;59.03
68867;SHT30;56451;44.804;20.476;2023-08-30T04:04:01;24.35;58.82
68867;SHT30;56451;44.804;20.476;2023-08-30T04:06:27;24.34;58.83
68867;SHT30;56451;44.804;20.476;2023-08-30T04:08:53;24.31;58.72
68867;SHT30;56451;44.804;20.476;2023-08-30T04:11:19;24.34;58.72
68867;SHT30;56451;44.804;20.476;2023-08-30T04:13:45;24.28;58.72
68867;SHT30;56451;44.804;20.476;2023-08-30T04:16:11;24.27;59.10
68867;SHT30;56451;44.804;20.476;2023-08-30T04:18:37;24.25;58.95
68867;SHT30;56451;44.804;20.476;2023-08-30T04:21:03;24.28;58.89
68867;SHT30;56451;44.804;20.476;2023-08-30T04:23:33;24.34;58.62
68867;SHT30;56451;44.804;20.476;2023-08-30T04:26:00;24.42;58.27
68867;SHT30;56451;44.804;20.476;2023-08-30T04:28:26;24.44;58.27
68867;SHT30;56451;44.804;20.476;2023-08-30T04:30:54;24.39;58.73
68867;SHT30;56451;44.804;20.476;2023-08-30T04:33:20;24.38;58.50
68867;SHT30;56451;44.804;20.476;2023-08-30T04:35:54;24.37;58.70
68867;SHT30;56451;44.804;20.476;2023-08-30T04:38:20;24.37;58.72
68867;SHT30;56451;44.804;20.476;2023-08-30T04:40:47;24.35;59.07
68867;SHT30;56451;44.804;20.476;2023-08-30T04:43:14;24.39;58.86
68867;SHT30;56451;44.804;20.476;2023-08-30T04:45:41;24.48;58.24
68867;SHT30;56451;44.804;20.476;2023-08-30T04:48:07;24.49;58.50
68867;SHT30;56451;44.804;20.476;2023-08-30T04:50:34;24.51;58.43
68867;SHT30;56451;44.804;20.476;2023-08-30T04:53:00;24.54;58.29
68867;SHT30;56451;44.804;20.476;2023-08-30T04:55:29;24.57;58.12
68867;SHT30;56451;44.804;20.476;2023-08-30T04:57:58;24.65;57.42
68867;SHT30;56451;44.804;20.476;2023-08-30T05:00:26;24.71;56.92
68867;SHT30;56451;44.804;20.476;2023-08-30T05:02:52;24.71;57.33
68867;SHT30;56451;44.804;20.476;2023-08-30T05:05:19;24.75;57.10
68867;SHT30;56451;44.804;20.476;2023-08-30T05:07:45;24.79;56.98
68867;SHT30;56451;44.804;20.476;2023-08-30T05:10:12;24.79;57.29
68867;SHT30;56451;44.804;20.476;2023-08-30T05:12:38;24.80;57.72
68867;SHT30;56451;44.804;20.476;2023-08-30T05:15:05;24.86;57.47
68867;SHT30;56451;44.804;20.476;2023-08-30T05:17:31;24.85;57.40
68867;SHT30;56451;44.804;20.476;2023-08-30T05:19:59;24.93;57.22
68867;SHT30;56451;44.804;20.476;2023-08-30T05:22:25;25.03;56.64
68867;SHT30;56451;44.804;20.476;2023-08-30T05:24:51;25.09;56.56
68867;SHT30;56451;44.804;20.476;2023-08-30T05:27:17;25.09;56.65
68867;SHT30;56451;44.804;20.476;2023-08-30T05:29:44;25.07;56.78
68867;SHT30;56451;44.804;20.476;2023-08-30T05:32:10;25.10;56.90
68867;SHT30;56451;44.804;20.476;2023-08-30T05:34:46;25.09;57.61
68867;SHT30;56451;44.804;20.476;2023-08-30T05:37:39;25.12;58.01
68867;SHT30;56451;44.804;20.476;2023-08-30T05:40:29;25.10;58.57
68867;SHT30;56451;44.804;20.476;2023-08-30T05:42:55;25.15;57.56
68867;SHT30;56451;44.804;20.476;2023-08-30T05:45:22;25.22;57.41
68867;SHT30;56451;44.804;20.476;2023-08-30T05:47:48;25.19;57.41
68867;SHT30;56451;44.804;20.476;2023-08-30T05:50:14;25.16;58.28
68867;SHT30;56451;44.804;20.476;2023-08-30T05:52:41;25.03;58.94
68867;SHT30;56451;44.804;20.476;2023-08-30T05:55:08;25.05;58.50
68867;SHT30;56451;44.804;20.476;2023-08-30T05:57:35;25.02;59.82
68867;SHT30;56451;44.804;20.476;2023-08-30T06:00:01;24.97;59.27
68867;SHT30;56451;44.804;20.476;2023-08-30T06:02:28;24.89;59.67
68867;SHT30;56451;44.804;20.476;2023-08-30T06:04:54;24.89;58.56
68867;SHT30;56451;44.804;20.476;2023-08-30T06:07:20;24.87;58.79
68867;SHT30;56451;44.804;20.476;2023-08-30T06:09:46;24.86;58.06
68867;SHT30;56451;44.804;20.476;2023-08-30T06:12:12;24.85;58.48
68867;SHT30;56451;44.804;20.476;2023-08-30T06:14:38;24.86;58.31
68867;SHT30;56451;44.804;20.476;2023-08-30T06:17:04;24.92;57.67
68867;SHT30;56451;44.804;20.476;2023-08-30T06:19:29;24.90;57.67
68867;SHT30;56451;44.804;20.476;2023-08-30T06:21:56;24.90;57.70
68867;SHT30;56451;44.804;20.476;2023-08-30T06:24:22;24.86;58.11
68867;SHT30;56451;44.804;20.476;2023-08-30T06:26:48;24.82;58.21
68867;SHT30;56451;44.804;20.476;2023-08-30T06:29:14;24.76;58.19
68867;SHT30;56451;44.804;20.476;2023-08-30T06:31:39;24.68;58.91
68867;SHT30;56451;44.804;20.476;2023-08-30T06:34:07;24.61;59.21
68867;SHT30;56451;44.804;20.476;2023-08-30T06:36:33;24.59;59.36
68867;SHT30;56451;44.804;20.476;2023-08-30T06:38:59;24.61;59.02
68867;SHT30;56451;44.804;20.476;2023-08-30T06:41:25;24.59;58.56
68867;SHT30;56451;44.804;20.476;2023-08-30T06:43:51;24.64;58.58
68867;SHT30;56451;44.804;20.476;2023-08-30T06:46:17;24.66;58.80
68867;SHT30;56451;44.804;20.476;2023-08-30T06:48:43;24.69;58.89
68867;SHT30;56451;44.804;20.476;2023-08-30T06:51:09;24.73;58.36
68867;SHT30;56451;44.804;20.476;2023-08-30T06:53:36;24.85;57.65
68867;SHT30;56451;44.804;20.476;2023-08-30T06:56:03;24.87;57.22
68867;SHT30;56451;44.804;20.476;2023-08-30T06:58:30;24.92;57.04
68867;SHT30;56451;44.804;20.476;2023-08-30T07:00:59;24.97;56.97
68867;SHT30;56451;44.804;20.476;2023-08-30T07:03:25;25.00;56.58
68867;SHT30;56451;44.804;20.476;2023-08-30T07:05:52;24.99;56.75
68867;SHT30;56451;44.804;20.476;2023-08-30T07:08:18;25.03;56.93
68867;SHT30;56451;44.804;20.476;2023-08-30T07:10:44;25.12;55.51
68867;SHT30;56451;44.804;20.476;2023-08-30T07:13:10;25.15;55.50
68867;SHT30;56451;44.804;20.476;2023-08-30T07:15:40;25.23;56.07
68867;SHT30;56451;44.804;20.476;2023-08-30T07:18:07;25.27;55.98
68867;SHT30;56451;44.804;20.476;2023-08-30T07:20:34;25.24;55.56
68867;SHT30;56451;44.804;20.476;2023-08-30T07:23:00;25.20;55.68
68867;SHT30;56451;44.804;20.476;2023-08-30T07:25:26;25.24;56.11
68867;SHT30;56451;44.804;20.476;2023-08-30T07:27:52;25.19;57.20
68867;SHT30;56451;44.804;20.476;2023-08-30T07:30:18;25.20;55.93
68867;SHT30;56451;44.804;20.476;2023-08-30T07:32:45;25.16;55.45
68867;SHT30;56451;44.804;20.476;2023-08-30T07:35:11;25.12;55.84
68867;SHT30;56451;44.804;20.476;2023-08-30T07:37:37;25.19;55.25
68867;SHT30;56451;44.804;20.476;2023-08-30T07:40:03;25.22;54.57
68867;SHT30;56451;44.804;20.476;2023-08-30T07:42:30;25.20;54.52
68867;SHT30;56451;44.804;20.476;2023-08-30T07:44:56;25.27;54.02
68867;SHT30;56451;44.804;20.476;2023-08-30T07:47:23;25.28;53.92
68867;SHT30;56451;44.804;20.476;2023-08-30T07:49:48;25.30;53.41
68867;SHT30;56451;44.804;20.476;2023-08-30T07:52:14;25.38;52.67
68867;SHT30;56451;44.804;20.476;2023-08-30T07:54:41;25.47;51.50
68867;SHT30;56451;44.804;20.476;2023-08-30T07:57:07;25.51;51.24
68867;SHT30;56451;44.804;20.476;2023-08-30T07:59:35;25.51;51.23
68867;SHT30;56451;44.804;20.476;2023-08-30T08:02:02;25.58;49.57
68867;SHT30;56451;44.804;20.476;2023-08-30T08:04:29;25.57;49.12
68867;SHT30;56451;44.804;20.476;2023-08-30T08:06:55;25.54;49.16
68867;SHT30;56451;44.804;20.476;2023-08-30T08:09:21;25.45;49.79
68867;SHT30;56451;44.804;20.476;2023-08-30T08:11:48;25.48;49.36
68867;SHT30;56451;44.804;20.476;2023-08-30T08:14:15;25.45;49.00
68867;SHT30;56451;44.804;20.476;2023-08-30T08:16:41;25.45;49.54
68867;SHT30;56451;44.804;20.476;2023-08-30T08:19:07;25.44;48.70
68867;SHT30;56451;44.804;20.476;2023-08-30T08:21:36;25.43;49.42
68867;SHT30;56451;44.804;20.476;2023-08-30T08:24:02;25.44;48.84
68867;SHT30;56451;44.804;20.476;2023-08-30T08:26:28;25.44;48.84
68867;SHT30;56451;44.804;20.476;2023-08-30T08:28:54;25.41;49.85
68867;SHT30;56451;44.804;20.476;2023-08-30T08:31:21;25.34;49.99
68867;SHT30;56451;44.804;20.476;2023-08-30T08:33:51;25.24;49.09
68867;SHT30;56451;44.804;20.476;2023-08-30T08:36:18;25.20;49.65
68867;SHT30;56451;44.804;20.476;2023-08-30T08:38:45;25.16;49.90
68867;SHT30;56451;44.804;20.476;2023-08-30T08:41:12;25.15;50.09
68867;SHT30;56451;44.804;20.476;2023-08-30T08:43:41;25.15;50.42
68867;SHT30;56451;44.804;20.476;2023-08-30T08:46:09;25.12;49.51
68867;SHT30;56451;44.804;20.476;2023-08-30T08:48:40;25.15;50.03
68867;SHT30;56451;44.804;20.476;2023-08-30T08:51:06;25.16;49.57
68867;SHT30;56451;44.804;20.476;2023-08-30T08:53:32;25.22;49.51
68867;SHT30;56451;44.804;20.476;2023-08-30T08:56:00;25.24;50.09
68867;SHT30;56451;44.804;20.476;2023-08-30T08:58:28;25.33;48.60
68867;SHT30;56451;44.804;20.476;2023-08-30T09:00:56;25.34;48.95
68867;SHT30;56451;44.804;20.476;2023-08-30T09:03:22;25.35;48.32
68867;SHT30;56451;44.804;20.476;2023-08-30T09:05:49;25.43;48.94
68867;SHT30;56451;44.804;20.476;2023-08-30T09:08:16;25.48;48.12
68867;SHT30;56451;44.804;20.476;2023-08-30T09:10:42;25.48;48.94
68867;SHT30;56451;44.804;20.476;2023-08-30T09:13:08;25.50;48.76
68867;SHT30;56451;44.804;20.476;2023-08-30T09:15:35;25.47;48.74
68867;SHT30;56451;44.804;20.476;2023-08-30T09:18:04;25.41;50.26
68867;SHT30;56451;44.804;20.476;2023-08-30T09:20:30;25.35;51.55
68867;SHT30;56451;44.804;20.476;2023-08-30T09:22:56;25.31;53.96
68867;SHT30;56451;44.804;20.476;2023-08-30T09:25:24;25.33;54.14
68867;SHT30;56451;44.804;20.476;2023-08-30T09:27:51;25.38;54.16
68867;SHT30;56451;44.804;20.476;2023-08-30T09:30:23;25.40;54.62
68867;SHT30;56451;44.804;20.476;2023-08-30T09:32:49;25.40;53.89
68867;SHT30;56451;44.804;20.476;2023-08-30T09:35:15;25.53;52.27
68867;SHT30;56451;44.804;20.476;2023-08-30T09:37:44;25.55;51.20
68867;SHT30;56451;44.804;20.476;2023-08-30T09:40:10;25.54;52.15
68867;SHT30;56451;44.804;20.476;2023-08-30T09:42:43;25.57;51.03
68867;SHT30;56451;44.804;20.476;2023-08-30T09:45:22;25.57;51.17
68867;SHT30;56451;44.804;20.476;2023-08-30T09:47:49;25.57;51.93
68867;SHT30;56451;44.804;20.476;2023-08-30T09:50:20;25.60;51.18
68867;SHT30;56451;44.804;20.476;2023-08-30T09:52:49;25.64;51.37
68867;SHT30;56451;44.804;20.476;2023-08-30T09:55:18;25.67;51.31
68867;SHT30;56451;44.804;20.476;2023-08-30T09:57:44;25.70;51.66
68867;SHT30;56451;44.804;20.476;2023-08-30T10:00:11;25.72;52.15
68867;SHT30;56451;44.804;20.476;2023-08-30T10:02:41;25.78;52.41
68867;SHT30;56451;44.804;20.476;2023-08-30T10:05:10;25.86;51.36
68867;SHT30;56451;44.804;20.476;2023-08-30T10:07:38;25.92;50.07
68867;SHT30;56451;44.804;20.476;2023-08-30T10:10:05;26.01;50.69
68867;SHT30;56451;44.804;20.476;2023-08-30T10:12:31;26.05;50.74
68867;SHT30;56451;44.804;20.476;2023-08-30T10:14:58;26.15;49.59
68867;SHT30;56451;44.804;20.476;2023-08-30T10:17:27;26.23;50.05
68867;SHT30;56451;44.804;20.476;2023-08-30T10:19:55;26.30;50.10
68867;SHT30;56451;44.804;20.476;2023-08-30T10:22:22;26.35;50.42
68867;SHT30;56451;44.804;20.476;2023-08-30T10:24:54;26.40;50.25
68867;SHT30;56451;44.804;20.476;2023-08-30T10:27:21;26.46;51.46
68867;SHT30;56451;44.804;20.476;2023-08-30T10:29:48;26.54;50.73
68867;SHT30;56451;44.804;20.476;2023-08-30T10:32:20;26.67;48.67
68867;SHT30;56451;44.804;20.476;2023-08-30T10:34:49;26.69;47.80
68867;SHT30;56451;44.804;20.476;2023-08-30T10:37:15;26.63;46.16
68867;SHT30;56451;44.804;20.476;2023-08-30T10:39:42;26.50;49.84
68867;SHT30;56451;44.804;20.476;2023-08-30T10:42:13;26.41;51.53
68867;SHT30;56451;44.804;20.476;2023-08-30T10:44:52;26.37;51.93
68867;SHT30;56451;44.804;20.476;2023-08-30T10:47:27;26.44;51.60
68867;SHT30;56451;44.804;20.476;2023-08-30T10:49:55;26.50;52.04
68867;SHT30;56451;44.804;20.476;2023-08-30T10:52:22;26.53;51.89
68867;SHT30;56451;44.804;20.476;2023-08-30T10:54:49;26.56;52.06
68867;SHT30;56451;44.804;20.476;2023-08-30T10:57:19;26.50;52.27
68867;SHT30;56451;44.804;20.476;2023-08-30T11:02:44;26.53;52.61
68867;SHT30;56451;44.804;20.476;2023-08-30T11:05:12;26.56;51.62
68867;SHT30;56451;44.804;20.476;2023-08-30T11:07:38;26.60;51.26
68867;SHT30;56451;44.804;20.476;2023-08-30T11:10:05;26.64;51.71
68867;SHT30;56451;44.804;20.476;2023-08-30T11:12:32;26.74;52.31
68867;SHT30;56451;44.804;20.476;2023-08-30T11:14:58;26.84;52.22
68867;SHT30;56451;44.804;20.476;2023-08-30T11:17:26;26.80;52.96
68867;SHT30;56451;44.804;20.476;2023-08-30T11:20:08;26.81;53.36
68867;SHT30;56451;44.804;20.476;2023-08-30T11:22:37;26.92;52.08
68867;SHT30;56451;44.804;20.476;2023-08-30T11:25:03;26.87;51.59
68867;SHT30;56451;44.804;20.476;2023-08-30T11:27:29;26.74;51.80
68867;SHT30;56451;44.804;20.476;2023-08-30T11:30:00;26.67;52.20
68867;SHT30;56451;44.804;20.476;2023-08-30T11:32:28;26.73;52.56
68867;SHT30;56451;44.804;20.476;2023-08-30T11:34:57;26.69;52.11
68867;SHT30;56451;44.804;20.476;2023-08-30T11:37:29;26.57;52.35
68867;SHT30;56451;44.804;20.476;2023-08-30T11:39:55;26.37;51.84
68867;SHT30;56451;44.804;20.476;2023-08-30T11:42:22;26.22;53.92
68867;SHT30;56451;44.804;20.476;2023-08-30T11:44:49;26.13;54.13
68867;SHT30;56451;44.804;20.476;2023-08-30T11:47:19;26.08;53.48
68867;SHT30;56451;44.804;20.476;2023-08-30T11:49:48;26.12;53.22
68867;SHT30;56451;44.804;20.476;2023-08-30T11:52:16;26.16;51.89
68867;SHT30;56451;44.804;20.476;2023-08-30T11:54:43;26.18;52.90
68867;SHT30;56451;44.804;20.476;2023-08-30T11:57:10;26.16;50.64
68867;SHT30;56451;44.804;20.476;2023-08-30T11:59:37;26.18;50.51
68867;SHT30;56451;44.804;20.476;2023-08-30T12:02:03;26.29;50.71
68867;SHT30;56451;44.804;20.476;2023-08-30T12:04:31;26.36;49.94
68867;SHT30;56451;44.804;20.476;2023-08-30T12:06:57;26.41;49.82
68867;SHT30;56451;44.804;20.476;2023-08-30T12:09:30;26.46;51.35
68867;SHT30;56451;44.804;20.476;2023-08-30T12:12:09;26.46;52.23
68867;SHT30;56451;44.804;20.476;2023-08-30T12:14:35;26.54;51.42
68867;SHT30;56451;44.804;20.476;2023-08-30T12:17:02;26.67;50.85
68867;SHT30;56451;44.804;20.476;2023-08-30T12:19:29;26.74;50.34
68867;SHT30;56451;44.804;20.476;2023-08-30T12:21:55;26.86;50.06
68867;SHT30;56451;44.804;20.476;2023-08-30T12:24:21;26.95;47.43
68867;SHT30;56451;44.804;20.476;2023-08-30T12:26:48;26.92;47.34
68867;SHT30;56451;44.804;20.476;2023-08-30T12:29:14;26.94;45.63
68867;SHT30;56451;44.804;20.476;2023-08-30T12:31:40;26.95;45.37
68867;SHT30;56451;44.804;20.476;2023-08-30T12:34:06;26.88;45.38
68867;SHT30;56451;44.804;20.476;2023-08-30T12:36:32;26.94;45.62
68867;SHT30;56451;44.804;20.476;2023-08-30T12:38:58;26.95;46.91
68867;SHT30;56451;44.804;20.476;2023-08-30T12:41:23;27.08;46.51
68867;SHT30;56451;44.804;20.476;2023-08-30T12:43:49;27.16;46.91
68867;SHT30;56451;44.804;20.476;2023-08-30T12:46:17;27.26;45.06
68867;SHT30;56451;44.804;20.476;2023-08-30T12:48:42;27.34;46.62
68867;SHT30;56451;44.804;20.476;2023-08-30T12:51:09;27.41;44.46
68867;SHT30;56451;44.804;20.476;2023-08-30T12:53:34;27.45;44.31
68867;SHT30;56451;44.804;20.476;2023-08-30T12:56:00;27.50;42.12
68867;SHT30;56451;44.804;20.476;2023-08-30T12:58:26;27.52;44.25
68867;SHT30;56451;44.804;20.476;2023-08-30T13:00:52;27.56;41.81
68867;SHT30;56451;44.804;20.476;2023-08-30T13:03:18;27.53;42.72
68867;SHT30;56451;44.804;20.476;2023-08-30T13:05:44;27.62;42.50
68867;SHT30;56451;44.804;20.476;2023-08-30T13:08:10;27.65;43.86
68867;SHT30;56451;44.804;20.476;2023-08-30T13:10:36;27.71;43.89
68867;SHT30;56451;44.804;20.476;2023-08-30T13:13:02;27.79;44.18
68867;SHT30;56451;44.804;20.476;2023-08-30T13:15:29;27.92;44.40
68867;SHT30;56451;44.804;20.476;2023-08-30T18:17:55;24.66;58.25
68867;SHT30;56451;44.804;20.476;2023-08-30T18:20:22;24.79;57.85
68867;SHT30;56451;44.804;20.476;2023-08-30T18:22:49;24.92;57.81
68867;SHT30;56451;44.804;20.476;2023-08-30T18:25:16;25.12;56.86
68867;SHT30;56451;44.804;20.476;2023-08-30T18:27:42;25.24;56.53
68867;SHT30;56451;44.804;20.476;2023-08-30T18:30:08;25.44;55.98
68867;SHT30;56451;44.804;20.476;2023-08-30T18:32:35;25.55;55.72
68867;SHT30;56451;44.804;20.476;2023-08-30T18:35:01;25.61;55.67
68867;SHT30;56451;44.804;20.476;2023-08-30T18:37:27;25.74;55.56
68867;SHT30;56451;44.804;20.476;2023-08-30T18:39:54;25.80;55.37
68867;SHT30;56451;44.804;20.476;2023-08-30T18:42:20;25.89;54.52
68867;SHT30;56451;44.804;20.476;2023-08-30T18:44:46;26.01;54.90
68867;SHT30;56451;44.804;20.476;2023-08-30T18:47:13;25.99;54.92
68867;SHT30;56451;44.804;20.476;2023-08-30T18:49:43;25.93;55.74
68867;SHT30;56451;44.804;20.476;2023-08-30T18:52:09;25.98;55.85
68867;SHT30;56451;44.804;20.476;2023-08-30T18:54:35;25.99;55.43
68867;SHT30;56451;44.804;20.476;2023-08-30T18:57:01;26.11;54.26
68867;SHT30;56451;44.804;20.476;2023-08-30T18:59:28;26.11;54.27
68867;SHT30;56451;44.804;20.476;2023-08-30T19:01:55;26.12;54.36
68867;SHT30;56451;44.804;20.476;2023-08-30T19:04:21;26.13;54.42
68867;SHT30;56451;44.804;20.476;2023-08-30T19:06:47;26.15;54.22
68867;SHT30;56451;44.804;20.476;2023-08-30T19:09:13;26.13;54.51
68867;SHT30;56451;44.804;20.476;2023-08-30T19:11:39;26.18;54.06
68867;SHT30;56451;44.804;20.476;2023-08-30T19:14:05;26.20;53.86
68867;SHT30;56451;44.804;20.476;2023-08-30T19:16:31;26.20;54.14
68867;SHT30;56451;44.804;20.476;2023-08-30T19:18:57;26.22;54.40
68867;SHT30;56451;44.804;20.476;2023-08-30T19:21:23;26.22;54.68
68867;SHT30;56451;44.804;20.476;2023-08-30T19:23:49;26.23;54.90
68867;SHT30;56451;44.804;20.476;2023-08-30T19:26:16;26.23;54.71
68867;SHT30;56451;44.804;20.476;2023-08-30T19:28:43;26.26;54.60
68867;SHT30;56451;44.804;20.476;2023-08-30T19:31:10;26.29;54.46
68867;SHT30;56451;44.804;20.476;2023-08-30T19:33:36;26.32;54.32
68867;SHT30;56451;44.804;20.476;2023-08-30T19:36:01;26.36;53.98
68867;SHT30;56451;44.804;20.476;2023-08-30T19:38:28;26.36;53.93
68867;SHT30;56451;44.804;20.476;2023-08-30T19:40:55;26.41;53.26
68867;SHT30;56451;44.804;20.476;2023-08-30T19:43:21;26.37;53.19
68867;SHT30;56451;44.804;20.476;2023-08-30T19:45:58;26.49;53.31
68867;SHT30;56451;44.804;20.476;2023-08-30T19:48:25;26.40;53.18
68867;SHT30;56451;44.804;20.476;2023-08-30T19:50:51;26.32;54.34
68867;SHT30;56451;44.804;20.476;2023-08-30T19:53:17;26.05;54.95
68867;SHT30;56451;44.804;20.476;2023-08-30T19:55:43;25.74;55.16
68867;SHT30;56451;44.804;20.476;2023-08-30T19:58:12;25.09;55.92
68867;SHT30;56451;44.804;20.476;2023-08-30T20:00:38;24.48;56.37
68867;SHT30;56451;44.804;20.476;2023-08-30T20:03:04;24.17;57.48
68867;SHT30;56451;44.804;20.476;2023-08-30T20:05:30;23.87;57.93
68867;SHT30;56451;44.804;20.476;2023-08-30T20:07:56;23.66;58.83
68867;SHT30;56451;44.804;20.476;2023-08-30T20:10:22;23.53;59.83
68867;SHT30;56451;44.804;20.476;2023-08-30T20:12:49;23.37;63.89
68867;SHT30;56451;44.804;20.476;2023-08-30T20:15:15;23.11;63.12
68867;SHT30;56451;44.804;20.476;2023-08-30T20:17:41;22.74;65.33
68867;SHT30;56451;44.804;20.476;2023-08-30T20:20:08;22.35;64.86
68867;SHT30;56451;44.804;20.476;2023-08-30T20:22:44;21.95;66.00
68867;SHT30;56451;44.804;20.476;2023-08-30T20:25:10;21.81;66.06